Time,TemperatureF,DewpointF,PressureIn,WindDirection,WindDirectionDegrees,WindSpeedMPH,WindSpeedGustMPH,Humidity,HourlyPrecipIn,Conditions,Clouds,dailyrainin,SoftwareType,DateUTC
2013-08-31 01:50:00,81.6,75.6,29.92,ENE,78,5.0,11.0,82,0.00,,,0.00,Wunderground v.1.15,2013-08-31 05:50:00,
2013-08-31 02:00:00,81.4,75.7,29.92,NE,51,5.0,6.0,83,0.00,,,0.00,Wunderground v.1.15,2013-08-31 06:00:00,
2013-08-31 02:10:00,81.2,75.9,29.91,ENE,61,6.0,7.0,84,0.00,,,0.00,Wunderground v.1.15,2013-08-31 06:10:00,
2013-08-31 08:40:00,82.0,78.8,29.94,ENE,68,8.0,8.0,90,0.00,,,0.06,Wunderground v.1.15,2013-08-31 12:40:00,
2013-08-31 08:50:00,82.4,78.8,29.94,ENE,72,8.0,14.0,89,0.00,,,0.06,Wunderground v.1.15,2013-08-31 12:50:00,
2013-08-31 09:00:00,82.6,78.3,29.94,East,80,9.0,9.0,87,0.00,,,0.06,Wunderground v.1.15,2013-08-31 13:00:00,
2013-08-31 09:10:00,83.4,78.4,29.95,East,96,10.0,10.0,85,0.00,,,0.06,Wunderground v.1.15,2013-08-31 13:10:00,
2013-08-31 09:20:00,83.8,78.1,29.95,ENE,66,9.0,10.0,83,0.00,,,0.06,Wunderground v.1.15,2013-08-31 13:20:00,
2013-08-31 09:30:00,84.1,78.0,29.95,ESE,103,10.0,10.0,82,0.00,,,0.06,Wunderground v.1.15,2013-08-31 13:30:00,
2013-08-31 09:40:00,84.7,78.2,29.96,ESE,107,9.0,10.0,81,0.00,,,0.06,Wunderground v.1.15,2013-08-31 13:40:00,
2013-08-31 09:50:00,85.5,77.9,29.96,East,84,9.0,11.0,78,0.00,,,0.06,Wunderground v.1.15,2013-08-31 13:50:00,
2013-08-31 10:00:00,86.1,78.0,29.96,East,84,9.0,9.0,77,0.00,,,0.06,Wunderground v.1.15,2013-08-31 14:00:00,
2013-08-31 10:10:00,86.5,78.4,29.96,ENE,70,9.0,12.0,77,0.00,,,0.06,Wunderground v.1.15,2013-08-31 14:10:00,
2013-08-31 10:20:00,86.7,78.2,29.96,ESE,106,9.0,14.0,76,0.00,,,0.06,Wunderground v.1.15,2013-08-31 14:20:00,
2013-08-31 10:30:00,87.2,78.7,29.96,ENE,72,8.0,8.0,76,0.00,,,0.06,Wunderground v.1.15,2013-08-31 14:30:00,
2013-08-31 10:40:00,87.4,78.5,29.96,ENE,77,9.0,16.0,75,0.00,,,0.06,Wunderground v.1.15,2013-08-31 14:40:00,
2013-08-31 10:50:00,87.4,78.1,29.96,NNE,25,10.0,14.0,74,0.00,,,0.06,Wunderground v.1.15,2013-08-31 14:50:00,
2013-08-31 11:00:00,87.8,77.6,29.96,East,86,11.0,15.0,72,0.00,,,0.06,Wunderground v.1.15,2013-08-31 15:00:00,
2013-08-31 11:10:00,88.0,77.4,29.96,East,82,10.0,10.0,71,0.00,,,0.06,Wunderground v.1.15,2013-08-31 15:10:00,
2013-08-31 11:20:00,88.0,77.0,29.95,ENE,63,11.0,12.0,70,0.00,,,0.06,Wunderground v.1.15,2013-08-31 15:20:00,
2013-08-31 11:30:00,88.6,77.6,29.95,ENE,69,11.0,11.0,70,0.00,,,0.06,Wunderground v.1.15,2013-08-31 15:30:00,
2013-08-31 11:40:00,89.0,78.4,29.95,East,98,10.0,10.0,71,0.00,,,0.06,Wunderground v.1.15,2013-08-31 15:40:00,
2013-08-31 11:50:00,89.0,77.9,29.95,ESE,107,11.0,11.0,70,0.00,,,0.06,Wunderground v.1.15,2013-08-31 15:50:00,
2013-08-31 12:10:00,90.3,78.3,29.95,East,79,11.0,14.0,68,0.00,,,0.06,Wunderground v.1.15,2013-08-31 16:10:00,
2013-08-31 12:20:00,90.1,78.1,29.94,ESE,105,12.0,12.0,68,0.00,,,0.06,Wunderground v.1.15,2013-08-31 16:20:00,
2013-08-31 12:30:00,90.1,78.6,29.94,East,95,12.0,15.0,69,0.00,,,0.06,Wunderground v.1.15,2013-08-31 16:30:00,
2013-08-31 12:50:00,89.9,77.5,29.93,East,95,12.0,12.0,67,0.00,,,0.06,Wunderground v.1.15,2013-08-31 16:50:00,
2013-08-31 13:00:00,90.1,78.1,29.93,ESE,112,12.0,17.0,68,0.00,,,0.06,Wunderground v.1.15,2013-08-31 17:00:00,
2013-08-31 13:10:00,89.9,77.9,29.93,ENE,74,11.0,11.0,68,0.00,,,0.06,Wunderground v.1.15,2013-08-31 17:10:00,
2013-08-31 13:20:00,90.1,77.7,29.93,ENE,77,11.0,11.0,67,0.00,,,0.06,Wunderground v.1.15,2013-08-31 17:20:00,
2013-08-31 13:30:00,89.9,77.5,29.93,East,97,11.0,16.0,67,0.00,,,0.06,Wunderground v.1.15,2013-08-31 17:30:00,
2013-08-31 13:40:00,89.9,77.9,29.93,SSE,155,11.0,13.0,68,0.00,,,0.06,Wunderground v.1.15,2013-08-31 17:40:00,
2013-08-31 13:50:00,89.9,77.5,29.92,ENE,74,11.0,12.0,67,0.00,,,0.06,Wunderground v.1.15,2013-08-31 17:50:00,
2013-08-31 14:00:00,89.9,77.9,29.92,East,93,10.0,17.0,68,0.00,,,0.06,Wunderground v.1.15,2013-08-31 18:00:00,
2013-08-31 14:10:00,89.3,77.3,29.92,East,83,11.0,14.0,68,0.00,,,0.06,Wunderground v.1.15,2013-08-31 18:10:00,
2013-08-31 14:20:00,89.9,77.9,29.91,ENE,78,9.0,9.0,68,0.00,,,0.06,Wunderground v.1.15,2013-08-31 18:20:00,
2013-08-31 14:30:00,89.9,77.9,29.91,East,95,10.0,10.0,68,0.00,,,0.06,Wunderground v.1.15,2013-08-31 18:30:00,
2013-08-31 14:40:00,89.7,77.7,29.91,ESE,116,9.0,12.0,68,0.00,,,0.06,Wunderground v.1.15,2013-08-31 18:40:00,
2013-08-31 14:50:00,89.5,77.1,29.91,ENE,73,10.0,10.0,67,0.00,,,0.06,Wunderground v.1.15,2013-08-31 18:50:00,
2013-08-31 15:00:00,89.0,77.1,29.91,ENE,78,11.0,15.0,68,0.00,,,0.06,Wunderground v.1.15,2013-08-31 19:00:00,
2013-08-31 15:10:00,89.0,76.6,29.90,ENE,74,10.0,12.0,67,0.00,,,0.06,Wunderground v.1.15,2013-08-31 19:10:00,
2013-08-31 15:20:00,88.8,76.9,29.90,ENE,71,10.0,10.0,68,0.00,,,0.06,Wunderground v.1.15,2013-08-31 19:20:00,
2013-08-31 15:30:00,89.0,77.5,29.90,East,84,9.0,9.0,69,0.00,,,0.06,Wunderground v.1.15,2013-08-31 19:30:00,
2013-08-31 15:40:00,88.6,77.1,29.90,ESE,113,10.0,11.0,69,0.00,,,0.06,Wunderground v.1.15,2013-08-31 19:40:00,
2013-08-31 15:50:00,88.2,76.7,29.90,ENE,65,9.0,12.0,69,0.00,,,0.06,Wunderground v.1.15,2013-08-31 19:50:00,
2013-08-31 16:00:00,88.2,77.2,29.90,ENE,72,8.0,11.0,70,0.00,,,0.06,Wunderground v.1.15,2013-08-31 20:00:00,
2013-08-31 16:10:00,87.4,76.8,29.90,East,94,10.0,11.0,71,0.00,,,0.06,Wunderground v.1.15,2013-08-31 20:10:00,
2013-08-31 16:20:00,87.4,76.8,29.90,ENE,69,10.0,13.0,71,0.00,,,0.06,Wunderground v.1.15,2013-08-31 20:20:00,
2013-08-31 16:30:00,86.7,76.6,29.90,East,97,10.0,10.0,72,0.00,,,0.06,Wunderground v.1.15,2013-08-31 20:30:00,
2013-08-31 16:40:00,87.0,77.3,29.90,ESE,122,7.0,10.0,73,0.00,,,0.06,Wunderground v.1.15,2013-08-31 20:40:00,
2013-08-31 16:50:00,86.1,76.0,29.90,East,86,9.0,9.0,72,0.00,,,0.06,Wunderground v.1.15,2013-08-31 20:50:00,
2013-08-31 17:00:00,86.3,77.0,29.90,ENE,78,10.0,10.0,74,0.00,,,0.06,Wunderground v.1.15,2013-08-31 21:00:00,
2013-08-31 17:10:00,85.5,75.9,29.90,East,94,9.0,10.0,73,0.00,,,0.06,Wunderground v.1.15,2013-08-31 21:10:00,
2013-08-31 17:20:00,85.9,76.6,29.90,ENE,77,8.0,13.0,74,0.00,,,0.06,Wunderground v.1.15,2013-08-31 21:20:00,
2013-08-31 17:30:00,85.3,76.1,29.90,ENE,65,8.0,9.0,74,0.00,,,0.06,Wunderground v.1.15,2013-08-31 21:30:00,
2013-08-31 17:40:00,84.7,75.9,29.90,ENE,69,9.0,9.0,75,0.00,,,0.06,Wunderground v.1.15,2013-08-31 21:40:00,
2013-08-31 17:50:00,84.5,75.7,29.90,ENE,74,10.0,10.0,75,0.00,,,0.06,Wunderground v.1.15,2013-08-31 21:50:00,
2013-08-31 18:00:00,84.5,76.1,29.90,NE,47,9.0,9.0,76,0.00,,,0.06,Wunderground v.1.15,2013-08-31 22:00:00,
2013-08-31 18:10:00,84.0,76.0,29.91,ENE,68,9.0,9.0,77,0.00,,,0.06,Wunderground v.1.15,2013-08-31 22:10:00,
2013-08-31 18:20:00,83.6,75.6,29.92,NE,53,8.0,11.0,77,0.00,,,0.06,Wunderground v.1.15,2013-08-31 22:20:00,
2013-08-31 18:30:00,83.2,75.6,29.92,ENE,67,7.0,7.0,78,0.00,,,0.06,Wunderground v.1.15,2013-08-31 22:30:00,
2013-08-31 18:40:00,82.8,75.6,29.92,NE,48,7.0,9.0,79,0.00,,,0.06,Wunderground v.1.15,2013-08-31 22:40:00,
2013-08-31 18:50:00,82.6,75.4,29.93,NE,52,5.0,5.0,79,0.00,,,0.06,Wunderground v.1.15,2013-08-31 22:50:00,
2013-08-31 19:00:00,82.4,75.6,29.93,NE,45,5.0,5.0,80,0.00,,,0.06,Wunderground v.1.15,2013-08-31 23:00:00,
2013-08-31 19:10:00,82.2,75.8,29.93,NE,43,5.0,6.0,81,0.00,,,0.06,Wunderground v.1.15,2013-08-31 23:10:00,
2013-08-31 19:20:00,82.0,75.6,29.93,ENE,64,5.0,5.0,81,0.00,,,0.06,Wunderground v.1.15,2013-08-31 23:20:00,
2013-08-31 19:30:00,81.8,75.8,29.93,NE,47,5.0,5.0,82,0.00,,,0.06,Wunderground v.1.15,2013-08-31 23:30:00,
2013-08-31 19:40:00,81.8,75.8,29.93,ENE,61,4.0,4.0,82,0.00,,,0.06,Wunderground v.1.15,2013-08-31 23:40:00,
2013-08-31 19:50:00,81.6,75.6,29.93,East,92,4.0,4.0,82,0.00,,,0.06,Wunderground v.1.15,2013-08-31 23:50:00,
2013-08-31 20:00:00,81.6,75.2,29.93,NE,53,5.0,6.0,81,0.00,,,0.06,Wunderground v.1.15,2013-09-01 00:00:00,